Time;durP1;ratioP1;P1;durP2;ratioP2;P2;SDS_P1;SDS_P2;PMS_P1;PMS_P2;Temp;Humidity;BMP_temperature;BMP_pressure;BME280_temperature;BME280_humidity;BME280_pressure;Samples;Min_cycle;Max_cycle;Signal;HPM_P1;HPM_P2
2022/04/16 00:01:04;;;;;;;5.95;4.75;;;20.10;62.90;;;;;;5023027;28;87512;-84
2022/04/16 00:03:31;;;;;;;6.38;4.82;;;20.00;62.80;;;;;;5026548;28;87419;-88
2022/04/16 00:05:57;;;;;;;6.60;4.93;;;20.10;62.90;;;;;;5028697;28;87184;-84
2022/04/16 00:08:28;;;;;;;5.80;4.72;;;20.10;62.90;;;;;;5024676;28;87825;-88
2022/04/16 00:10:54;;;;;;;7.97;5.38;;;20.10;62.90;;;;;;5026252;28;88436;-82
2022/04/16 00:13:21;;;;;;;5.25;4.75;;;20.10;62.90;;;;;;5022647;28;86983;-82
2022/04/16 00:15:49;;;;;;;6.55;4.70;;;20.10;62.90;;;;;;5021458;28;87883;-86
2022/04/16 00:18:15;;;;;;;8.10;5.50;;;20.10;62.80;;;;;;5025981;28;87659;-82
2022/04/16 00:20:41;;;;;;;6.38;4.75;;;20.10;62.80;;;;;;5024160;27;88452;-85
2022/04/16 00:23:07;;;;;;;6.22;4.82;;;20.10;62.80;;;;;;5025957;28;88121;-86
2022/04/16 00:25:34;;;;;;;6.28;4.72;;;20.00;62.90;;;;;;5024379;27;86928;-86
2022/04/16 00:28:01;;;;;;;5.45;4.82;;;20.00;62.60;;;;;;5026255;28;88374;-85
2022/04/16 00:30:26;;;;;;;6.40;5.15;;;20.00;62.60;;;;;;5020670;28;87616;-86
2022/04/16 00:32:55;;;;;;;6.18;5.20;;;20.00;62.60;;;;;;5024420;28;88016;-83
2022/04/16 00:35:22;;;;;;;5.28;4.78;;;20.00;62.60;;;;;;5020771;28;87725;-89
2022/04/16 00:37:52;;;;;;;5.80;4.60;;;20.00;62.60;;;;;;5022603;28;89978;-83
2022/04/16 00:40:18;;;;;;;5.53;4.95;;;20.00;62.50;;;;;;5021830;28;87736;-83
2022/04/16 00:42:44;;;;;;;5.18;4.68;;;20.00;62.70;;;;;;5023668;28;87552;-85
2022/04/16 00:45:10;;;;;;;5.70;4.95;;;20.00;62.60;;;;;;5019422;28;89664;-81
2022/04/16 00:47:36;;;;;;;6.57;5.00;;;20.00;62.60;;;;;;5025525;27;87619;-83
2022/04/16 00:50:04;;;;;;;6.75;4.85;;;20.00;62.60;;;;;;5027558;28;86911;-86
2022/04/16 00:52:29;;;;;;;5.45;4.95;;;20.00;62.50;;;;;;5023792;28;87808;-83
2022/04/16 00:54:56;;;;;;;5.63;5.00;;;20.00;62.50;;;;;;5029891;28;87764;-88
2022/04/16 00:57:23;;;;;;;5.75;4.70;;;20.00;62.40;;;;;;5028209;28;87871;-89
2022/04/16 00:59:49;;;;;;;5.50;4.70;;;20.00;62.50;;;;;;5020393;27;87070;-84
2022/04/16 01:02:14;;;;;;;5.03;4.50;;;20.00;62.50;;;;;;5024132;27;86957;-87
2022/04/16 01:04:40;;;;;;;7.00;5.13;;;19.90;62.40;;;;;;5023913;28;88844;-88
2022/04/16 01:07:06;;;;;;;6.10;5.00;;;19.90;62.50;;;;;;5020950;28;87050;-87
2022/04/16 01:09:33;;;;;;;5.38;4.47;;;19.90;62.40;;;;;;5023282;28;89222;-84
2022/04/16 01:11:59;;;;;;;7.05;4.95;;;20.00;62.40;;;;;;5023818;28;86974;-83
2022/04/16 01:14:25;;;;;;;5.70;4.93;;;20.00;62.30;;;;;;5021516;27;88145;-85
2022/04/16 01:16:57;;;;;;;4.95;4.45;;;19.90;62.40;;;;;;5023919;28;87439;-84
2022/04/16 01:19:26;;;;;;;4.68;4.22;;;19.90;62.30;;;;;;5025402;28;88072;-85
2022/04/16 01:21:51;;;;;;;5.65;5.07;;;19.90;62.20;;;;;;5022924;28;87917;-89
2022/04/16 01:24:18;;;;;;;6.75;5.18;;;19.90;62.30;;;;;;5027066;28;88010;-82
2022/04/16 01:26:44;;;;;;;5.35;4.85;;;19.90;62.20;;;;;;5014215;28;90044;-81
2022/04/16 01:29:12;;;;;;;5.00;4.50;;;19.90;62.10;;;;;;5021588;28;88641;-85
2022/04/16 01:31:38;;;;;;;6.32;4.90;;;19.90;62.30;;;;;;5029185;28;87135;-86
2022/04/16 01:34:04;;;;;;;6.00;5.10;;;19.90;62.90;;;;;;5022106;28;88651;-84
2022/04/16 01:36:31;;;;;;;6.03;4.85;;;19.90;62.10;;;;;;5022396;27;89760;-82
2022/04/16 01:38:57;;;;;;;5.55;4.70;;;19.90;62.10;;;;;;5024278;27;87729;-81
2022/04/16 01:41:27;;;;;;;5.70;5.03;;;19.90;62.20;;;;;;5021380;28;87518;-84
2022/04/16 01:43:54;;;;;;;6.10;5.20;;;19.90;62.30;;;;;;5023754;28;88042;-84
2022/04/16 01:46:21;;;;;;;6.35;5.30;;;19.90;62.20;;;;;;5012139;28;88873;-86
2022/04/16 01:48:49;;;;;;;5.53;4.70;;;19.90;62.20;;;;;;5021850;27;87263;-84
2022/04/16 01:51:17;;;;;;;4.97;4.47;;;19.90;62.20;;;;;;5024426;28;86519;-86
2022/04/16 01:53:44;;;;;;;5.80;4.80;;;19.90;62.10;;;;;;5015298;28;90841;-85
2022/04/16 01:56:22;;;;;;;5.63;4.90;;;19.90;62.10;;;;;;5029054;28;88264;-89
2022/04/16 01:58:49;;;;;;;4.82;4.40;;;19.90;62.20;;;;;;5018030;28;88046;-88
2022/04/16 02:01:15;;;;;;;5.20;4.30;;;19.90;62.20;;;;;;5024705;28;88508;-89
2022/04/16 02:03:41;;;;;;;5.47;4.93;;;19.90;62.00;;;;;;5023995;28;89208;-87
2022/04/16 02:06:06;;;;;;;5.35;4.85;;;19.90;62.10;;;;;;5026503;28;88493;-82
2022/04/16 02:08:32;;;;;;;5.22;4.47;;;19.80;61.90;;;;;;5027900;28;87273;-80
2022/04/16 02:10:58;;;;;;;5.57;4.95;;;19.90;62.10;;;;;;5024735;28;89546;-81
2022/04/16 02:13:23;;;;;;;5.85;4.97;;;19.90;61.80;;;;;;5028701;28;87702;-84
2022/04/16 02:15:49;;;;;;;7.43;5.03;;;19.90;61.80;;;;;;5028888;27;87115;-83
2022/04/16 02:18:15;;;;;;;5.45;4.78;;;19.90;61.90;;;;;;5026373;27;87595;-87
2022/04/16 02:20:44;;;;;;;5.70;5.03;;;19.90;62.00;;;;;;5024137;28;89843;-84
2022/04/16 02:23:10;;;;;;;5.20;4.70;;;19.90;61.90;;;;;;5027088;28;88689;-82
2022/04/16 02:25:36;;;;;;;5.75;4.88;;;19.90;61.90;;;;;;5025063;28;89320;-85
2022/04/16 02:28:01;;;;;;;5.78;4.60;;;19.80;61.90;;;;;;5027099;28;86927;-82
2022/04/16 02:30:30;;;;;;;5.82;5.05;;;19.80;61.90;;;;;;5025890;28;87430;-81
2022/04/16 02:32:56;;;;;;;4.90;4.47;;;19.80;62.00;;;;;;5027983;28;87516;-88
2022/04/16 02:35:29;;;;;;;5.82;4.30;;;19.80;62.10;;;;;;5026496;28;87498;-81
2022/04/16 02:37:55;;;;;;;5.53;4.70;;;19.80;61.80;;;;;;5025481;28;88024;-84
2022/04/16 02:40:21;;;;;;;5.07;4.35;;;19.80;61.90;;;;;;5029790;28;86589;-88
2022/04/16 02:42:47;;;;;;;5.00;4.45;;;19.80;61.80;;;;;;5026887;28;89003;-89
2022/04/16 02:48:01;;;;;;;4.78;4.38;;;19.80;61.70;;;;;;5027569;28;88663;-89
2022/04/16 02:50:28;;;;;;;5.32;4.82;;;19.80;61.80;;;;;;5027017;27;87042;-84
2022/04/16 02:52:56;;;;;;;5.18;4.68;;;19.80;62.10;;;;;;5026235;28;88610;-85
2022/04/16 02:55:23;;;;;;;5.07;4.57;;;19.80;61.80;;;;;;5026795;28;87321;-85
2022/04/16 02:57:52;;;;;;;4.97;4.57;;;19.80;61.80;;;;;;5023510;28;86991;-81
2022/04/16 03:00:22;;;;;;;5.20;4.70;;;19.80;61.90;;;;;;5023394;28;88348;-83
2022/04/16 03:02:50;;;;;;;5.22;4.72;;;19.80;62.00;;;;;;5023398;28;87528;-80
2022/04/16 03:05:15;;;;;;;5.28;4.78;;;19.80;61.80;;;;;;5018435;28;90371;-81
2022/04/16 03:07:41;;;;;;;4.75;4.35;;;19.80;61.80;;;;;;5028074;27;88034;-86
2022/04/16 03:10:11;;;;;;;5.03;4.53;;;19.80;61.80;;;;;;5026431;28;86905;-86
2022/04/16 03:12:53;;;;;;;4.88;4.45;;;19.80;61.90;;;;;;5024218;28;87988;-84
2022/04/16 03:18:28;;;;;;;5.20;4.38;;;19.80;61.60;;;;;;5027119;28;87594;-88
2022/04/16 03:20:54;;;;;;;4.80;4.40;;;19.80;61.70;;;;;;5024160;28;86884;-81
2022/04/16 03:23:19;;;;;;;5.00;4.50;;;19.70;61.60;;;;;;5022945;28;88015;-82
2022/04/16 03:25:45;;;;;;;4.85;4.35;;;19.70;61.50;;;;;;5028034;28;88076;-82
2022/04/16 03:28:12;;;;;;;4.85;4.45;;;19.70;61.60;;;;;;5026419;28;87972;-83
2022/04/16 03:30:38;;;;;;;4.72;4.30;;;19.70;61.60;;;;;;5025503;27;86437;-81
2022/04/16 03:33:04;;;;;;;4.80;4.30;;;19.70;61.60;;;;;;5025354;28;87673;-82
2022/04/16 03:35:30;;;;;;;4.47;4.07;;;19.70;61.50;;;;;;5027310;28;87885;-82
2022/04/16 03:37:55;;;;;;;5.65;4.47;;;19.70;61.50;;;;;;5022944;28;88402;-82
2022/04/16 03:40:24;;;;;;;5.15;4.65;;;19.70;61.60;;;;;;5024424;27;86933;-81
2022/04/16 03:42:58;;;;;;;4.50;4.10;;;19.70;61.60;;;;;;5027777;28;88298;-88
2022/04/16 03:45:36;;;;;;;4.65;4.25;;;19.70;61.50;;;;;;5023498;28;87541;-80
2022/04/16 03:48:06;;;;;;;5.93;4.63;;;19.70;61.40;;;;;;5026010;27;86990;-88
2022/04/16 03:50:33;;;;;;;4.90;4.45;;;19.70;61.30;;;;;;5022155;28;87560;-83
2022/04/16 03:53:00;;;;;;;4.65;4.25;;;19.70;61.40;;;;;;5024220;27;87237;-87
2022/04/16 04:01:01;;;;;;;4.65;4.15;;;19.70;61.30;;;;;;5024972;28;88230;-80
2022/04/16 04:03:27;;;;;;;6.18;5.07;;;19.70;61.30;;;;;;5026518;28;88945;-87
2022/04/16 04:05:54;;;;;;;5.85;4.45;;;19.70;61.10;;;;;;5022728;28;91219;-84
2022/04/16 04:08:22;;;;;;;4.60;4.20;;;19.70;61.30;;;;;;5025543;28;87699;-89
2022/04/16 04:10:47;;;;;;;4.68;4.28;;;19.60;61.30;;;;;;5020040;28;89344;-83
2022/04/16 04:13:14;;;;;;;4.63;4.22;;;19.60;61.30;;;;;;5021773;28;88259;-89
2022/04/16 04:15:40;;;;;;;4.25;3.90;;;19.60;62.00;;;;;;5025106;28;87506;-83
2022/04/16 04:18:07;;;;;;;4.75;4.35;;;19.60;61.20;;;;;;5023179;27;87796;-84
2022/04/16 04:20:35;;;;;;;4.38;3.97;;;19.60;61.10;;;;;;5028716;28;86936;-88
2022/04/16 04:23:04;;;;;;;4.55;4.13;;;19.60;61.30;;;;;;5023880;28;87574;-88
2022/04/16 04:25:30;;;;;;;5.05;4.60;;;19.60;61.10;;;;;;5028000;27;87477;-88
2022/04/16 04:27:56;;;;;;;5.03;4.50;;;19.60;61.30;;;;;;5026594;28;87849;-88
2022/04/16 04:30:22;;;;;;;4.85;4.30;;;19.60;61.20;;;;;;5024942;27;87440;-85
2022/04/16 04:32:48;;;;;;;5.32;4.82;;;19.60;61.20;;;;;;5027789;28;87167;-86
2022/04/16 04:35:14;;;;;;;4.72;4.22;;;19.60;61.30;;;;;;5027618;28;87692;-87
2022/04/16 04:37:45;;;;;;;4.60;4.20;;;19.60;61.20;;;;;;5026874;28;87840;-82
2022/04/16 04:40:11;;;;;;;5.00;4.32;;;19.60;61.20;;;;;;5026292;28;88092;-86
2022/04/16 04:42:37;;;;;;;5.20;4.28;;;19.60;61.10;;;;;;5025036;28;88011;-82
2022/04/16 04:45:08;;;;;;;5.00;4.50;;;19.60;61.20;;;;;;5025375;28;87119;-89
2022/04/16 04:47:33;;;;;;;5.50;5.00;;;19.60;61.00;;;;;;5025870;28;87628;-88
2022/04/16 04:49:59;;;;;;;5.35;4.50;;;19.60;60.50;;;;;;5026087;28;87318;-89
2022/04/16 04:52:30;;;;;;;5.00;4.50;;;19.60;61.10;;;;;;5025731;28;88564;-88
2022/04/16 04:54:56;;;;;;;6.35;4.15;;;19.60;61.00;;;;;;5026963;28;88215;-89
2022/04/16 04:57:25;;;;;;;6.07;4.10;;;19.60;61.10;;;;;;5029637;28;86925;-85
2022/04/16 04:59:51;;;;;;;5.43;4.30;;;19.60;61.00;;;;;;5023053;27;87159;-87
2022/04/16 05:02:17;;;;;;;7.13;4.93;;;19.60;61.00;;;;;;5025482;28;89870;-87
2022/04/16 05:04:43;;;;;;;5.82;4.32;;;19.60;61.40;;;;;;5022851;28;87806;-88
2022/04/16 05:07:09;;;;;;;5.03;4.53;;;19.60;61.60;;;;;;5026686;28;88237;-83
2022/04/16 05:09:35;;;;;;;5.22;4.72;;;19.60;61.90;;;;;;5022211;28;86790;-84
2022/04/16 05:12:01;;;;;;;5.60;5.07;;;19.60;62.10;;;;;;5025261;28;87887;-83
2022/04/16 05:14:27;;;;;;;6.57;4.78;;;19.60;61.90;;;;;;5023673;28;89021;-82
2022/04/16 05:17:02;;;;;;;7.75;5.28;;;19.60;62.00;;;;;;5026896;27;88728;-88
2022/04/16 05:19:31;;;;;;;7.28;5.20;;;19.60;62.10;;;;;;5023847;28;87452;-83
2022/04/16 05:21:56;;;;;;;7.03;5.60;;;19.60;62.10;;;;;;5024999;28;88101;-83
2022/04/16 05:24:22;;;;;;;7.75;5.28;;;19.60;62.00;;;;;;5024882;28;87966;-85
2022/04/16 05:26:48;;;;;;;6.57;5.60;;;19.60;62.00;;;;;;5023259;27;87979;-87
2022/04/16 05:29:14;;;;;;;6.28;5.63;;;19.70;62.30;;;;;;5023793;28;87668;-85
2022/04/16 05:31:40;;;;;;;5.47;4.97;;;19.60;62.10;;;;;;5023051;28;87423;-82
2022/04/16 05:34:18;;;;;;;6.18;5.57;;;19.70;62.00;;;;;;5026233;27;87335;-88
2022/04/16 05:36:45;;;;;;;5.90;5.15;;;19.60;62.00;;;;;;5024018;28;87977;-85
2022/04/16 05:39:11;;;;;;;6.13;5.28;;;19.70;61.90;;;;;;5013233;28;90537;-82
2022/04/16 05:41:37;;;;;;;5.40;4.90;;;19.70;62.00;;;;;;5021729;28;88684;-88
2022/04/16 05:44:04;;;;;;;6.85;5.53;;;19.70;62.60;;;;;;5024267;27;88994;-83
2022/04/16 05:46:30;;;;;;;6.20;5.50;;;19.70;62.00;;;;;;5024646;28;87444;-84
2022/04/16 05:48:56;;;;;;;6.40;5.63;;;19.70;61.90;;;;;;5023348;28;87526;-83
2022/04/16 05:51:23;;;;;;;6.45;5.32;;;19.70;61.90;;;;;;5023571;28;87539;-88
2022/04/16 05:53:55;;;;;;;6.53;5.15;;;19.70;61.90;;;;;;5023906;27;87483;-84
2022/04/16 05:56:21;;;;;;;6.15;5.55;;;19.70;61.90;;;;;;5024322;28;87525;-81
2022/04/16 05:58:47;;;;;;;5.43;4.90;;;19.70;61.90;;;;;;5021267;28;87085;-85
2022/04/16 06:01:13;;;;;;;5.22;4.65;;;19.70;61.80;;;;;;5025314;28;88148;-85
2022/04/16 06:03:40;;;;;;;5.57;4.93;;;19.70;62.00;;;;;;5024253;28;87253;-86
2022/04/16 06:06:09;;;;;;;5.82;5.28;;;19.70;61.90;;;;;;5022235;27;87944;-85
2022/04/16 06:08:36;;;;;;;7.25;4.90;;;19.70;61.90;;;;;;5024209;28;86969;-84
2022/04/16 06:11:01;;;;;;;6.18;5.18;;;19.80;62.10;;;;;;5019372;27;87695;-88
2022/04/16 06:13:30;;;;;;;5.53;5.00;;;19.80;62.20;;;;;;5181031;22;87786;-66
2022/04/16 06:16:06;;;;;;;8.13;5.18;;;19.80;62.20;;;;;;4989825;28;88165;-67
2022/04/16 06:18:32;;;;;;;7.40;5.20;;;19.80;62.70;;;;;;5005159;28;90265;-67
2022/04/16 06:20:57;;;;;;;8.23;5.45;;;19.80;62.80;;;;;;5006930;28;89918;-67
2022/04/16 06:23:23;;;;;;;7.25;5.00;;;19.80;63.00;;;;;;5009502;28;88800;-66
2022/04/16 06:25:49;;;;;;;8.57;5.25;;;19.80;63.30;;;;;;5009538;28;87372;-65
2022/04/16 06:28:14;;;;;;;5.82;5.20;;;19.90;63.30;;;;;;5009391;28;86949;-65
2022/04/16 06:30:40;;;;;;;7.70;5.68;;;19.90;63.40;;;;;;5008104;28;89126;-65
2022/04/16 06:33:06;;;;;;;9.40;6.05;;;19.80;63.50;;;;;;5008539;28;88907;-64
2022/04/16 06:35:31;;;;;;;16.63;5.78;;;19.90;63.00;;;;;;5001709;28;87756;-65
2022/04/16 06:37:57;;;;;;;18.58;7.03;;;19.80;63.00;;;;;;5008119;28;87690;-63
2022/04/16 06:40:22;;;;;;;14.50;6.03;;;19.90;62.50;;;;;;5007074;28;88171;-65
2022/04/16 06:42:48;;;;;;;8.85;5.60;;;19.90;62.70;;;;;;5010208;28;88019;-64
2022/04/16 06:45:14;;;;;;;18.88;6.75;;;19.90;62.60;;;;;;5008232;28;87437;-65
2022/04/16 06:47:40;;;;;;;14.05;6.10;;;19.90;62.00;;;;;;5009182;28;86990;-66
2022/04/16 06:50:07;;;;;;;14.85;6.05;;;19.90;61.20;;;;;;5011878;28;88194;-64
2022/04/16 06:52:33;;;;;;;20.10;6.47;;;19.90;61.60;;;;;;5001019;28;92123;-65
2022/04/16 06:54:59;;;;;;;25.23;7.68;;;19.90;61.60;;;;;;5010106;28;88367;-65
2022/04/16 06:57:25;;;;;;;14.68;6.90;;;19.90;61.80;;;;;;5011324;28;87927;-65
2022/04/16 06:59:51;;;;;;;20.25;8.25;;;20.00;62.40;;;;;;5007314;28;88113;-66
2022/04/16 07:02:17;;;;;;;15.70;6.93;;;20.00;62.70;;;;;;5008735;28;87911;-65
2022/04/16 07:04:43;;;;;;;27.67;8.75;;;20.00;62.70;;;;;;5007829;28;87452;-65
2022/04/16 07:07:09;;;;;;;21.08;8.57;;;20.00;64.70;;;;;;5003600;28;87773;-65
2022/04/16 07:09:38;;;;;;;18.05;8.50;;;20.00;70.60;;;;;;5010596;28;88071;-65
2022/04/16 07:12:06;;;;;;;17.73;8.63;;;20.00;70.40;;;;;;4999829;28;91141;-66
2022/04/16 07:14:33;;;;;;;24.45;9.30;;;20.00;73.20;;;;;;5009424;28;88043;-66
2022/04/16 07:16:59;;;;;;;20.48;10.10;;;20.00;74.10;;;;;;5009777;28;87708;-65
2022/04/16 07:19:24;;;;;;;21.27;9.27;;;20.00;72.90;;;;;;5008506;28;89185;-65
2022/04/16 07:21:50;;;;;;;19.42;10.45;;;20.00;72.00;;;;;;4949942;28;88862;-65
2022/04/16 07:24:15;;;;;;;28.17;10.02;;;20.00;70.60;;;;;;5005996;28;87478;-65
2022/04/16 07:26:41;;;;;;;35.40;11.75;;;20.00;70.20;;;;;;5003907;28;90217;-64
2022/04/16 07:29:07;;;;;;;25.42;11.02;;;20.00;70.40;;;;;;5008498;28;88020;-66
2022/04/16 07:31:35;;;;;;;25.20;11.57;;;20.00;70.30;;;;;;5008142;28;87350;-66
2022/04/16 07:34:00;;;;;;;24.38;10.32;;;20.00;70.20;;;;;;5009350;28;88068;-65
2022/04/16 07:36:26;;;;;;;28.42;11.60;;;20.10;69.30;;;;;;5008659;28;89835;-65
2022/04/16 07:38:52;;;;;;;24.42;11.43;;;20.10;69.10;;;;;;5006453;28;87893;-65
2022/04/16 07:41:17;;;;;;;27.15;12.60;;;20.10;68.70;;;;;;5009992;28;88021;-65
2022/04/16 07:43:43;;;;;;;21.58;11.10;;;20.10;68.10;;;;;;5009890;28;88350;-65
2022/04/16 07:46:09;;;;;;;21.95;10.60;;;20.00;67.60;;;;;;5010896;28;88118;-65
2022/04/16 07:48:34;;;;;;;18.63;11.20;;;20.00;68.10;;;;;;5009698;28;87506;-65
2022/04/16 07:51:00;;;;;;;22.67;11.95;;;20.00;67.10;;;;;;5009648;28;88025;-65
2022/04/16 07:53:25;;;;;;;21.02;11.27;;;20.10;66.90;;;;;;5008613;28;87299;-65
2022/04/16 07:55:51;;;;;;;22.08;10.63;;;20.00;66.60;;;;;;5009696;28;87665;-64
2022/04/16 07:58:16;;;;;;;21.60;9.95;;;20.00;66.40;;;;;;5009511;28;87368;-65
2022/04/16 08:00:42;;;;;;;14.65;9.15;;;20.00;66.00;;;;;;5010430;28;88580;-64
2022/04/16 08:03:08;;;;;;;19.00;9.65;;;20.10;65.80;;;;;;5009327;28;87300;-66
2022/04/16 08:05:33;;;;;;;21.40;10.27;;;20.00;65.50;;;;;;5010211;28;88221;-66
2022/04/16 08:07:59;;;;;;;23.75;10.35;;;20.10;64.80;;;;;;5009771;28;89212;-64
2022/04/16 08:10:24;;;;;;;24.30;11.18;;;20.00;64.50;;;;;;5005921;28;91115;-66
2022/04/16 08:12:50;;;;;;;22.90;9.73;;;20.10;64.00;;;;;;5006778;28;87382;-64
2022/04/16 08:15:16;;;;;;;17.27;9.27;;;20.00;64.20;;;;;;5001384;28;90278;-65
2022/04/16 08:17:42;;;;;;;16.38;9.52;;;20.10;64.20;;;;;;5010071;28;87559;-64
2022/04/16 08:20:08;;;;;;;19.52;9.00;;;20.00;64.10;;;;;;5005597;28;90740;-66
2022/04/16 08:22:34;;;;;;;16.90;9.13;;;20.00;64.20;;;;;;4996924;28;88230;-65
2022/04/16 08:27:46;;;;;;;16.83;9.07;;;20.10;64.30;;;;;;5005278;28;88827;-66
2022/04/16 08:30:13;;;;;;;17.25;9.32;;;20.10;65.00;;;;;;5007990;28;90447;-65
2022/04/16 08:32:41;;;;;;;19.60;9.73;;;20.10;64.40;;;;;;5008883;28;89551;-65
2022/04/16 08:35:11;;;;;;;9.88;6.60;;;20.10;64.80;;;;;;5008884;28;87407;-66
2022/04/16 08:37:36;;;;;;;15.45;9.15;;;20.10;65.20;;;;;;5006860;28;89470;-65
2022/04/16 08:40:05;;;;;;;25.33;8.98;;;20.10;64.60;;;;;;5008496;28;87794;-66
2022/04/16 08:42:34;;;;;;;22.88;9.07;;;20.10;64.90;;;;;;5008499;28;87900;-66
2022/04/16 08:45:01;;;;;;;19.23;9.07;;;20.10;65.20;;;;;;5009287;28;87097;-67
2022/04/16 08:47:27;;;;;;;12.90;7.95;;;20.10;65.10;;;;;;5009341;28;88646;-68
2022/04/16 08:49:53;;;;;;;19.88;8.82;;;20.10;64.40;;;;;;5009738;28;87650;-68
2022/04/16 08:52:40;;;;;;;17.75;8.98;;;20.10;65.00;;;;;;5009489;28;87673;-67
2022/04/16 08:55:11;;;;;;;17.25;8.38;;;20.10;65.10;;;;;;5008621;28;87076;-67
2022/04/16 08:57:39;;;;;;;16.70;9.25;;;20.10;65.40;;;;;;5008684;28;89174;-69
2022/04/16 09:00:05;;;;;;;12.93;7.55;;;20.10;65.30;;;;;;5008452;28;88698;-68
2022/04/16 09:02:31;;;;;;;18.50;8.63;;;20.10;65.70;;;;;;5008796;28;87654;-67
2022/04/16 09:05:10;;;;;;;14.27;7.85;;;20.20;65.50;;;;;;5005923;28;90253;-69
2022/04/16 09:07:48;;;;;;;14.30;8.02;;;20.20;65.50;;;;;;5007947;28;87281;-70
2022/04/16 09:10:14;;;;;;;14.77;6.13;;;20.20;65.90;;;;;;5007574;28;87222;-66
2022/04/16 09:12:41;;;;;;;10.98;6.25;;;20.20;65.20;;;;;;5008244;28;87253;-65
2022/04/16 09:15:11;;;;;;;9.13;5.90;;;20.10;64.50;;;;;;5008873;28;87835;-69
2022/04/16 09:17:40;;;;;;;12.25;6.55;;;20.20;64.40;;;;;;5008108;28;88152;-70
2022/04/16 09:20:10;;;;;;;13.48;6.97;;;20.20;64.00;;;;;;5007843;28;87729;-69
2022/04/16 09:22:38;;;;;;;12.68;7.10;;;20.20;64.50;;;;;;5007247;28;88355;-70
2022/04/16 09:25:14;;;;;;;17.83;8.60;;;20.20;64.10;;;;;;5008141;28;87610;-69
2022/04/16 09:27:52;;;;;;;15.52;7.78;;;20.20;64.30;;;;;;5008719;28;91034;-68
2022/04/16 09:30:31;;;;;;;13.30;6.55;;;20.20;64.90;;;;;;4991794;28;91529;-69
2022/04/16 09:32:58;;;;;;;48.85;14.60;;;20.20;63.70;;;;;;5006321;28;87698;-68
2022/04/16 09:35:36;;;;;;;47.80;16.73;;;20.20;62.00;;;;;;5008449;28;88169;-70
2022/04/16 09:38:04;;;;;;;62.35;19.27;;;20.20;63.60;;;;;;5006438;28;89999;-69
2022/04/16 09:40:39;;;;;;;67.95;19.42;;;20.20;64.20;;;;;;5004963;28;87904;-69
2022/04/16 09:43:09;;;;;;;54.72;17.25;;;20.20;64.30;;;;;;5006897;28;87003;-68
2022/04/16 09:45:39;;;;;;;47.13;13.45;;;20.20;64.60;;;;;;5004836;28;87785;-69
2022/04/16 09:48:11;;;;;;;34.20;12.45;;;20.30;62.30;;;;;;5007248;28;88925;-68
2022/04/16 09:50:39;;;;;;;47.95;15.43;;;20.40;61.10;;;;;;5005557;28;88719;-68
2022/04/16 09:53:06;;;;;;;33.80;11.50;;;20.40;62.70;;;;;;5004279;28;87315;-67
2022/04/16 09:55:31;;;;;;;47.35;15.63;;;20.30;63.00;;;;;;5008431;28;88162;-67
2022/04/16 09:57:59;;;;;;;51.33;16.13;;;20.30;62.30;;;;;;5007256;28;88025;-69
2022/04/16 10:00:26;;;;;;;51.75;16.08;;;20.30;64.30;;;;;;5005275;28;87360;-68
2022/04/16 10:02:53;;;;;;;43.25;15.07;;;20.30;65.40;;;;;;5004107;28;87337;-67
2022/04/16 10:05:20;;;;;;;42.35;15.13;;;20.30;65.60;;;;;;5007678;28;87172;-68
2022/04/16 10:07:47;;;;;;;37.63;13.95;;;20.30;65.90;;;;;;5006508;28;87960;-68
2022/04/16 10:10:18;;;;;;;37.55;15.73;;;20.30;66.00;;;;;;5006497;28;89836;-68
2022/04/16 10:13:05;;;;;;;42.92;14.73;;;20.30;66.40;;;;;;5006069;28;87902;-68
2022/04/16 10:15:53;;;;;;;37.03;14.00;;;20.30;66.50;;;;;;5006767;28;88037;-66
2022/04/16 10:18:18;;;;;;;35.38;12.60;;;20.20;66.40;;;;;;5008878;28;88467;-68
2022/04/16 10:20:57;;;;;;;30.80;12.60;;;20.30;66.30;;;;;;5010406;28;86892;-67
2022/04/16 10:23:39;;;;;;;36.75;12.55;;;20.30;66.50;;;;;;5007302;28;87482;-67
2022/04/16 10:26:09;;;;;;;40.60;13.27;;;20.30;66.50;;;;;;5010668;28;87497;-68
2022/04/16 10:28:52;;;;;;;35.97;12.63;;;20.30;66.20;;;;;;5008594;28;90764;-68
2022/04/16 10:31:29;;;;;;;43.05;12.88;;;20.30;66.10;;;;;;5009770;28;88952;-67
2022/04/16 10:34:05;;;;;;;31.77;13.60;;;20.30;67.00;;;;;;5011148;28;87271;-68
2022/04/16 10:36:39;;;;;;;40.45;13.57;;;20.30;66.90;;;;;;5015694;28;90100;-66
2022/04/16 10:39:16;;;;;;;33.40;13.07;;;20.30;67.00;;;;;;5009790;28;89655;-67
2022/04/16 10:41:55;;;;;;;35.35;12.30;;;20.30;66.80;;;;;;5011520;28;88694;-67
2022/04/16 10:44:21;;;;;;;;;;;20.30;66.80;;;;;;5008483;28;87894;-67
2022/04/16 10:46:51;;;;;;;33.47;12.50;;;20.30;67.10;;;;;;5010177;28;89805;-66
2022/04/16 10:49:25;;;;;;;30.90;12.10;;;20.30;66.80;;;;;;5016802;28;90998;-66
2022/04/16 10:51:52;;;;;;;36.53;12.00;;;20.30;66.20;;;;;;5010304;28;88140;-67
2022/04/16 10:54:32;;;;;;;35.20;13.05;;;20.30;65.90;;;;;;5008320;28;87600;-67
2022/04/16 10:57:01;;;;;;;40.38;11.75;;;20.30;66.00;;;;;;5009017;28;88361;-65
2022/04/16 10:59:41;;;;;;;34.63;12.93;;;20.30;66.00;;;;;;5007344;28;91181;-67
2022/04/16 11:02:24;;;;;;;31.65;11.77;;;20.30;66.00;;;;;;5004823;28;88131;-67
2022/04/16 11:05:21;;;;;;;25.60;10.02;;;20.30;65.80;;;;;;5006716;28;88155;-65
2022/04/16 11:07:47;;;;;;;41.80;12.23;;;20.40;65.00;;;;;;5000559;28;87286;-66
2022/04/16 11:10:14;;;;;;;41.42;11.50;;;20.40;65.60;;;;;;5010035;28;87815;-68
2022/04/16 11:12:41;;;;;;;35.47;12.15;;;20.40;65.80;;;;;;5009486;28;88303;-68
2022/04/16 11:15:24;;;;;;;46.22;11.85;;;20.40;65.90;;;;;;5005123;28;87609;-66
2022/04/16 11:17:54;;;;;;;25.55;10.80;;;20.40;66.10;;;;;;5005452;28;87707;-68
2022/04/16 11:20:25;;;;;;;40.92;11.20;;;20.40;65.80;;;;;;5009854;28;88342;-68
2022/04/16 11:22:51;;;;;;;37.38;12.20;;;20.40;66.10;;;;;;5010744;28;87799;-65
2022/04/16 11:25:24;;;;;;;41.60;11.15;;;20.40;66.40;;;;;;5007349;28;87320;-66
2022/04/16 11:36:09;;;;;;;38.65;11.20;;;20.40;65.90;;;;;;5010306;28;87853;-67
2022/04/16 11:38:36;;;;;;;41.78;12.05;;;20.40;65.80;;;;;;5009172;28;87383;-68
2022/04/16 11:41:05;;;;;;;44.28;11.50;;;20.40;66.00;;;;;;5008875;28;88337;-67
2022/04/16 11:43:32;;;;;;;38.10;10.57;;;20.40;65.80;;;;;;5010408;28;87852;-68
2022/04/16 11:46:02;;;;;;;35.03;11.27;;;20.40;67.10;;;;;;5007418;28;87216;-66
2022/04/16 11:48:31;;;;;;;36.30;9.23;;;20.40;66.80;;;;;;5004253;28;88838;-68
2022/04/16 11:50:57;;;;;;;22.65;8.23;;;20.40;66.80;;;;;;5006833;28;88892;-67
2022/04/16 11:53:23;;;;;;;33.33;9.23;;;20.40;66.30;;;;;;5004210;28;87273;-67
2022/04/16 11:55:52;;;;;;;42.05;11.10;;;20.40;66.50;;;;;;5007174;28;89373;-67
2022/04/16 11:58:25;;;;;;;28.48;9.20;;;20.40;66.50;;;;;;5005141;28;89324;-67
2022/04/16 12:00:55;;;;;;;30.15;8.90;;;20.40;65.70;;;;;;5003709;28;87908;-68
2022/04/16 12:03:37;;;;;;;30.60;9.13;;;20.40;63.80;;;;;;5006536;28;87738;-67
2022/04/16 12:06:10;;;;;;;26.38;8.73;;;20.40;63.70;;;;;;4962066;28;87243;-68
2022/04/16 12:08:36;;;;;;;40.03;12.55;;;20.40;64.80;;;;;;5005243;28;87883;-65
2022/04/16 12:11:03;;;;;;;35.78;11.98;;;20.40;66.50;;;;;;5001300;28;90941;-67
2022/04/16 12:13:36;;;;;;;37.88;11.48;;;20.40;66.30;;;;;;5002778;28;88516;-66
2022/04/16 12:16:07;;;;;;;37.20;11.88;;;20.50;66.20;;;;;;5004437;28;86898;-67
2022/04/16 12:18:41;;;;;;;36.53;12.20;;;20.50;66.10;;;;;;5004082;28;87622;-66
2022/04/16 12:21:12;;;;;;;38.65;11.80;;;20.40;66.30;;;;;;5001808;28;89205;-67
2022/04/16 12:23:38;;;;;;;44.58;11.85;;;20.40;66.10;;;;;;5003988;28;88974;-66
2022/04/16 12:26:06;;;;;;;31.42;10.95;;;20.40;66.00;;;;;;5002162;28;87977;-66
2022/04/16 12:28:51;;;;;;;32.67;11.73;;;20.40;66.10;;;;;;5004417;28;87842;-67
2022/04/16 12:31:30;;;;;;;30.90;10.18;;;20.40;66.10;;;;;;5003048;28;87543;-68
2022/04/16 12:33:56;;;;;;;31.38;11.27;;;20.40;66.20;;;;;;5005680;28;88336;-67
2022/04/16 12:36:21;;;;;;;29.45;10.45;;;20.40;66.80;;;;;;5004330;28;87175;-66
2022/04/16 12:38:47;;;;;;;29.35;10.15;;;20.40;66.00;;;;;;5005181;28;87506;-67
2022/04/16 12:41:12;;;;;;;21.08;9.40;;;20.40;66.00;;;;;;5004327;28;89344;-66
2022/04/16 12:43:39;;;;;;;34.42;10.55;;;20.40;66.00;;;;;;4999788;28;87764;-67
2022/04/16 12:46:05;;;;;;;24.60;9.90;;;20.40;66.20;;;;;;5002925;28;88380;-65
2022/04/16 12:48:31;;;;;;;24.42;9.52;;;20.40;66.30;;;;;;5004512;28;87167;-65
2022/04/16 12:50:56;;;;;;;28.80;9.73;;;20.40;66.00;;;;;;5003639;28;91261;-66
2022/04/16 12:53:22;;;;;;;27.00;10.55;;;20.40;66.10;;;;;;5005618;28;87543;-66
2022/04/16 12:55:48;;;;;;;24.85;9.68;;;20.40;66.40;;;;;;4998298;28;87965;-66
2022/04/16 12:58:13;;;;;;;26.60;9.10;;;20.40;66.40;;;;;;5003594;28;87654;-65
2022/04/16 13:00:39;;;;;;;21.65;9.07;;;20.40;66.00;;;;;;5003177;28;87581;-68
2022/04/16 13:03:06;;;;;;;30.00;10.27;;;20.40;66.20;;;;;;5002271;28;90948;-68
2022/04/16 13:05:33;;;;;;;24.15;9.25;;;20.40;66.20;;;;;;5003539;28;87676;-68
2022/04/16 13:08:00;;;;;;;23.85;8.27;;;20.40;66.40;;;;;;5001455;28;87925;-68